Airfield :
LOGIN :

Register | Disclaimer

   EN    FR    IT 

 










Legend :    VFR   Marginal VFR   IFR   Intensive IFR   Very Intensive IFR
Visi :
Ceiling :
>= 8 km
>= 3000ft
5 to 8 km
1000 to 3000 ft
1500m to 5 km
500 to 1000 ft
800 to 1500m
200 to 500 ft
< 800m
< 200 ft
Symbols :   Thunderstorms  Fog  Heavy snow  Heavy precipitations  Wind > 20 kt
SIGMETs :     Misc.  Thunderstorms  Icing  Turbulence  Mountain Waves  Volcanic Ashes







- Airport Elevation : 788 ft
- IATA code : DCM
- Download approach charts


LFCK - Castres-Mazamet

CURRENT METAR :
  • 181730Z AUTO 11012KT CAVOK 24/14 Q1018 NOSIG

EXPIRED METARs :
  • 181700Z AUTO 11012KT 080V140 CAVOK 25/14 Q1018 NOSIG
  • 181630Z AUTO 11012KT 080V140 CAVOK 26/14 Q1018 NOSIG
  • 181600Z AUTO 11015KT CAVOK 26/14 Q1018 NOSIG
  • 181530Z AUTO 12017KT CAVOK 27/13 Q1018 NOSIG
  • 181500Z AUTO 11014KT 080V140 CAVOK 27/13 Q1018 NOSIG
  • 181430Z AUTO 12013KT 090V150 CAVOK 27/13 Q1018 NOSIG

TAF TAF LFCK
Valid from the 18 at 18:00 until the 19 at 03:00 UTC


181700Z 1818/1903 12012KT CAVOK
No reported NOTAMs for that airfield.
1 SIGMET reported for the Bordeaux FIR (LFBB) :
 
Embedded thunderstorms
LFBB SIGMET 2 VALID 181620/181800 LFPW
LFBB BORDEAUX FIR/UIR EMBD TS OBS WI N4615 E00300 - N4445 E00245 - N4530 E00200 - N4615 E00300 TOP FL340 STNR NC=



MET'MAP, your aeronautical weather chart ! - Copyright ORBIFLY December 2007 - Disclaimer

ORBIFLY MET'MAP TEAM :

Programming & Development : Alexandra Zaïnal
Concept & Development : Baudouin d'Aumeries
Co-Development & Prog : Marc-Olivier Méhu
Technical & hardware support : Manuel Goepfert

Contact : metmap@orbifly.com




SOURCES & CREDITS :

   NOAA